Time;durP1;ratioP1;P1;durP2;ratioP2;P2;SDS_P1;SDS_P2;PMS_P1;PMS_P2;Temp;Humidity;BMP_temperature;BMP_pressure;BME280_temperature;BME280_humidity;BME280_pressure;Samples;Min_cycle;Max_cycle;Signal;HPM_P1;HPM_P2
2022/11/12 00:01:17;;;;;;;21.20;11.23;;;7.30;1.00;;;;;;5069941;28;20406;-48
2022/11/12 00:03:43;;;;;;;21.77;11.67;;;7.00;1.00;;;;;;5070864;28;20434;-49
2022/11/12 00:06:08;;;;;;;20.70;10.48;;;7.00;1.00;;;;;;5070221;28;20404;-48
2022/11/12 00:08:35;;;;;;;19.60;10.18;;;6.90;1.00;;;;;;5070562;28;20422;-48
2022/11/12 00:11:00;;;;;;;20.50;10.95;;;7.00;1.00;;;;;;5070049;28;20384;-49
2022/11/12 00:13:26;;;;;;;20.53;11.13;;;6.90;1.00;;;;;;5070322;28;20391;-48
2022/11/12 00:15:52;;;;;;;23.40;10.23;;;7.70;1.00;;;;;;5069928;28;20782;-55
2022/11/12 00:18:17;;;;;;;21.13;10.37;;;6.70;1.00;;;;;;5069394;28;20387;-48
2022/11/12 00:20:43;;;;;;;22.40;10.52;;;6.60;1.00;;;;;;5070259;28;20375;-48
2022/11/12 00:23:09;;;;;;;17.80;9.95;;;6.60;1.00;;;;;;5069781;28;20404;-48
2022/11/12 00:25:35;;;;;;;22.33;10.17;;;6.50;1.00;;;;;;5070577;28;20427;-49
2022/11/12 00:28:05;;;;;;;21.48;10.48;;;8.10;1.00;;;;;;5069395;28;20558;-49
2022/11/12 00:30:31;;;;;;;18.02;10.30;;;6.30;1.00;;;;;;5069713;28;20402;-49
2022/11/12 00:33:01;;;;;;;19.17;10.33;;;6.80;1.00;;;;;;5068796;28;20872;-50
2022/11/12 00:35:27;;;;;;;20.42;10.75;;;7.50;1.00;;;;;;5070357;28;20418;-48
2022/11/12 00:37:54;;;;;;;22.67;11.73;;;6.40;1.00;;;;;;5069838;28;20476;-49
2022/11/12 00:40:20;;;;;;;18.90;9.55;;;6.40;1.00;;;;;;5069898;28;20383;-48
2022/11/12 00:42:45;;;;;;;19.90;9.67;;;6.40;1.00;;;;;;5069679;28;20730;-48
2022/11/12 00:45:11;;;;;;;20.50;10.68;;;7.60;1.00;;;;;;5069054;28;20426;-48
2022/11/12 00:47:36;;;;;;;19.50;9.90;;;6.30;1.00;;;;;;5069511;28;20395;-49
2022/11/12 00:50:02;;;;;;;20.02;10.93;;;6.20;1.00;;;;;;5068222;28;20383;-48
2022/11/12 00:52:28;;;;;;;18.57;9.53;;;6.20;1.60;;;;;;5069687;28;20364;-49
2022/11/12 00:54:53;;;;;;;20.73;9.40;;;6.20;2.80;;;;;;5069439;28;20805;-49
2022/11/12 00:57:19;;;;;;;18.53;10.03;;;6.20;1.00;;;;;;5070240;28;20399;-49
2022/11/12 00:59:44;;;;;;;18.33;10.15;;;6.10;1.00;;;;;;5069629;28;20388;-48
2022/11/12 01:02:10;;;;;;;20.13;10.60;;;6.10;1.00;;;;;;5069032;28;20466;-48
2022/11/12 01:04:35;;;;;;;20.93;11.00;;;7.60;14.80;;;;;;5069718;28;20474;-48
2022/11/12 01:07:01;;;;;;;21.52;11.18;;;6.20;21.70;;;;;;5068831;28;20460;-48
2022/11/12 01:09:26;;;;;;;23.80;9.10;;;6.20;20.30;;;;;;5070456;28;20376;-48
2022/11/12 01:11:52;;;;;;;19.40;9.77;;;7.20;1.00;;;;;;5068879;28;20459;-52
2022/11/12 01:14:18;;;;;;;17.20;9.37;;;5.90;1.00;;;;;;5069716;28;20449;-50
2022/11/12 01:16:43;;;;;;;20.40;9.40;;;7.10;1.00;;;;;;5069843;28;20379;-51
2022/11/12 01:19:11;;;;;;;19.87;10.40;;;5.70;1.00;;;;;;5068935;28;20469;-50
2022/11/12 01:21:40;;;;;;;20.90;10.50;;;6.70;1.00;;;;;;5069687;28;20375;-50
2022/11/12 01:24:07;;;;;;;20.02;9.70;;;6.80;1.00;;;;;;5069081;28;20387;-50
2022/11/12 01:26:33;;;;;;;19.75;10.02;;;5.70;1.00;;;;;;5069836;28;20376;-49
2022/11/12 01:28:58;;;;;;;17.67;9.40;;;5.90;1.00;;;;;;5068878;28;20390;-49
2022/11/12 01:31:26;;;;;;;19.15;9.82;;;5.90;1.00;;;;;;5072942;28;20880;-49
2022/11/12 01:33:58;;;;;;;21.40;10.48;;;5.90;1.00;;;;;;5073098;28;20465;-54
2022/11/12 01:36:25;;;;;;;20.98;10.35;;;7.60;1.00;;;;;;5073630;28;20844;-50
2022/11/12 01:38:52;;;;;;;17.95;9.10;;;5.90;1.00;;;;;;5073017;28;20375;-49
2022/11/12 01:41:26;;;;;;;22.00;10.23;;;5.90;1.00;;;;;;5073438;28;20433;-49
2022/11/12 01:44:12;;;;;;;20.27;10.03;;;5.90;1.00;;;;;;5073441;28;20864;-50
2022/11/12 01:46:57;;;;;;;18.55;9.95;;;5.80;1.00;;;;;;5073169;28;20445;-49
2022/11/12 01:49:42;;;;;;;18.95;10.00;;;5.90;1.00;;;;;;5073471;28;20972;-49
2022/11/12 01:52:19;;;;;;;19.23;9.82;;;5.90;1.00;;;;;;5072620;28;20868;-49
2022/11/12 01:54:49;;;;;;;18.58;9.75;;;5.90;1.00;;;;;;5073034;28;20380;-49
2022/11/12 01:57:19;;;;;;;18.95;10.48;;;7.50;1.00;;;;;;5072470;28;20426;-49
2022/11/12 01:59:48;;;;;;;17.38;9.48;;;5.70;1.00;;;;;;5073440;28;20379;-49
2022/11/12 02:02:13;;;;;;;18.75;9.77;;;5.70;1.00;;;;;;5072327;28;20492;-49
2022/11/12 02:04:41;;;;;;;21.05;10.07;;;7.30;1.00;;;;;;5073124;28;20458;-49
2022/11/12 02:07:08;;;;;;;17.80;9.00;;;5.70;1.00;;;;;;5071753;28;20376;-50
2022/11/12 02:09:35;;;;;;;19.95;9.93;;;6.00;1.00;;;;;;5072923;28;20372;-49
2022/11/12 02:12:00;;;;;;;19.83;9.10;;;7.30;1.00;;;;;;5053976;28;20776;-50
2022/11/12 02:14:27;;;;;;;18.40;9.80;;;6.90;1.00;;;;;;5072911;28;20367;-49
2022/11/12 02:16:53;;;;;;;21.63;9.77;;;6.20;1.00;;;;;;5072870;28;20406;-50
2022/11/12 02:19:19;;;;;;;17.92;8.88;;;7.20;1.00;;;;;;5072321;28;20811;-49
2022/11/12 02:21:44;;;;;;;21.90;9.77;;;5.90;1.00;;;;;;5072508;28;20372;-52
2022/11/12 02:24:13;;;;;;;18.17;10.05;;;5.90;1.00;;;;;;5071743;28;20403;-49
2022/11/12 02:26:46;;;;;;;24.45;9.98;;;6.40;1.00;;;;;;5072399;28;20384;-49
2022/11/12 02:29:11;;;;;;;17.85;9.52;;;6.00;1.00;;;;;;5072114;28;20368;-49
2022/11/12 02:31:37;;;;;;;18.50;9.93;;;5.90;4.80;;;;;;5072847;28;20441;-49
2022/11/12 02:34:03;;;;;;;21.60;9.97;;;5.80;16.50;;;;;;5070353;28;20433;-49
2022/11/12 02:36:29;;;;;;;20.52;9.85;;;6.90;9.70;;;;;;5072143;28;20382;-49
2022/11/12 02:38:56;;;;;;;19.80;10.20;;;5.80;24.30;;;;;;5071775;28;20857;-50
2022/11/12 02:41:22;;;;;;;21.40;10.82;;;6.20;13.70;;;;;;5071499;28;20368;-49
2022/11/12 02:43:47;;;;;;;18.45;10.02;;;5.90;2.60;;;;;;5071788;28;20385;-49
2022/11/12 02:46:14;;;;;;;19.10;9.70;;;5.90;14.90;;;;;;5070989;28;20600;-49
2022/11/12 02:48:39;;;;;;;22.63;10.23;;;5.90;5.10;;;;;;5071681;28;20690;-49
2022/11/12 02:51:05;;;;;;;17.65;10.32;;;5.90;12.50;;;;;;5053198;28;20384;-50
2022/11/12 02:53:31;;;;;;;20.15;9.85;;;5.90;1.00;;;;;;5072339;28;20368;-49
2022/11/12 02:55:58;;;;;;;20.90;11.02;;;7.70;5.80;;;;;;5071174;28;20407;-49
2022/11/12 02:58:23;;;;;;;22.05;10.77;;;5.90;10.20;;;;;;5072246;28;20689;-49
2022/11/12 03:00:49;;;;;;;19.20;10.05;;;5.90;19.80;;;;;;5071737;28;20380;-49
2022/11/12 03:03:15;;;;;;;19.37;9.73;;;5.70;9.80;;;;;;5070983;28;20383;-49
2022/11/12 03:05:41;;;;;;;17.38;9.75;;;5.70;41.40;;;;;;5071559;28;20395;-50
2022/11/12 03:08:08;;;;;;;22.52;11.10;;;5.70;34.80;;;;;;5071001;28;20799;-49
2022/11/12 03:10:37;;;;;;;22.27;9.80;;;5.60;39.10;;;;;;5071059;28;20410;-49
2022/11/12 03:13:04;;;;;;;20.07;8.93;;;6.80;94.10;;;;;;5070518;28;20850;-49
2022/11/12 03:15:30;;;;;;;19.60;9.88;;;5.70;98.30;;;;;;5071687;28;20404;-49
2022/11/12 03:17:59;;;;;;;19.25;10.60;;;7.30;99.90;;;;;;5070972;28;20420;-50
2022/11/12 03:20:25;;;;;;;17.75;9.70;;;7.40;99.90;;;;;;5071389;28;20384;-51
2022/11/12 03:23:06;;;;;;;18.27;9.68;;;5.80;87.70;;;;;;5071470;28;20372;-50
2022/11/12 03:25:32;;;;;;;17.65;8.85;;;5.80;83.80;;;;;;5071422;28;20453;-49
2022/11/12 03:27:59;;;;;;;18.20;9.40;;;5.80;44.60;;;;;;5070422;28;20391;-55
2022/11/12 03:30:27;;;;;;;18.00;9.75;;;6.30;53.20;;;;;;5071335;28;20483;-49
2022/11/12 03:32:52;;;;;;;17.95;9.23;;;5.90;62.40;;;;;;5070874;28;20395;-49
2022/11/12 03:35:18;;;;;;;15.63;8.98;;;6.30;9.50;;;;;;5070615;28;20388;-49
2022/11/12 03:37:44;;;;;;;17.60;9.77;;;5.80;1.00;;;;;;5071148;28;20368;-49
2022/11/12 03:40:10;;;;;;;17.20;9.48;;;7.70;4.20;;;;;;5070695;28;20455;-49
2022/11/12 03:42:35;;;;;;;17.02;9.60;;;5.70;1.00;;;;;;5071071;28;20384;-50
2022/11/12 03:45:01;;;;;;;17.77;8.80;;;5.60;11.20;;;;;;5070276;28;20706;-49
2022/11/12 03:47:26;;;;;;;19.17;9.45;;;5.60;14.00;;;;;;5071150;28;20384;-50
2022/11/12 03:49:52;;;;;;;17.43;8.90;;;5.70;39.20;;;;;;5070898;28;20894;-49
2022/11/12 03:52:18;;;;;;;16.55;9.00;;;5.40;49.90;;;;;;5070209;28;20383;-51
2022/11/12 03:54:43;;;;;;;18.53;9.13;;;5.40;64.50;;;;;;5069466;28;20496;-49
2022/11/12 03:57:09;;;;;;;18.63;9.10;;;5.40;52.90;;;;;;5069887;28;20461;-49
2022/11/12 03:59:34;;;;;;;15.03;8.27;;;7.30;57.00;;;;;;5070804;28;20414;-50
2022/11/12 04:02:00;;;;;;;13.60;7.82;;;5.60;65.30;;;;;;5069400;28;20391;-50
2022/11/12 04:08:34;;;;;;;16.50;8.73;;;6.20;21.40;;;;;;5070163;28;20415;-50
2022/11/12 04:09:58;;;;;;;17.60;8.60;;;5.20;40.40;;;;;;5069618;28;20382;-50
2022/11/12 04:15:08;;;;;;;16.45;8.43;;;5.20;64.90;;;;;;5069493;28;20375;-54
2022/11/12 04:23:01;;;;;;;14.43;7.80;;;6.10;82.40;;;;;;5069790;28;20421;-51
2022/11/12 04:28:11;;;;;;;17.88;9.45;;;5.10;91.90;;;;;;5068995;28;20429;-54
2022/11/12 04:30:36;;;;;;;14.20;8.27;;;5.10;71.00;;;;;;5070460;28;20387;-51
2022/11/12 04:33:02;;;;;;;15.32;8.10;;;6.90;92.20;;;;;;5069814;28;20403;-51
2022/11/12 04:35:27;;;;;;;17.73;9.23;;;5.00;89.80;;;;;;5070052;28;20412;-52
2022/11/12 04:37:54;;;;;;;18.80;8.50;;;4.90;95.30;;;;;;5070248;28;20371;-51
2022/11/12 04:45:53;;;;;;;14.63;7.88;;;5.00;99.90;;;;;;5069888;28;20454;-52
2022/11/12 04:48:20;;;;;;;16.85;8.00;;;5.00;99.90;;;;;;5069283;28;21034;-52
2022/11/12 04:50:53;;;;;;;16.45;8.10;;;5.00;99.90;;;;;;5069913;28;20376;-51
2022/11/12 04:53:19;;;;;;;17.10;8.07;;;6.20;99.90;;;;;;5069707;28;20364;-51
2022/11/12 04:55:44;;;;;;;18.57;7.93;;;6.40;99.90;;;;;;5069629;28;20462;-51
2022/11/12 04:58:10;;;;;;;14.17;7.50;;;5.00;99.90;;;;;;5068909;28;20445;-52
2022/11/12 05:00:35;;;;;;;14.67;7.57;;;5.60;99.90;;;;;;5069963;28;20905;-48
2022/11/12 05:03:01;;;;;;;15.55;7.80;;;5.60;99.90;;;;;;5069103;28;20395;-52
2022/11/12 05:05:26;;;;;;;14.23;7.37;;;5.20;99.90;;;;;;5071563;28;20415;-51
2022/11/12 05:07:52;;;;;;;15.05;8.05;;;5.60;99.90;;;;;;5072972;28;20387;-51
2022/11/12 05:10:18;;;;;;;16.20;7.63;;;6.30;91.70;;;;;;5073356;28;20987;-51
2022/11/12 05:12:43;;;;;;;14.48;7.35;;;5.20;54.40;;;;;;5073808;28;20376;-51
2022/11/12 05:15:10;;;;;;;18.45;7.75;;;6.30;54.50;;;;;;5073061;28;20387;-52
2022/11/12 05:17:40;;;;;;;15.90;8.07;;;5.30;59.10;;;;;;5073595;28;20395;-52
2022/11/12 05:20:07;;;;;;;16.00;7.40;;;5.30;39.30;;;;;;5073394;28;20395;-53
2022/11/12 05:22:33;;;;;;;15.98;7.70;;;5.30;33.90;;;;;;5073516;28;20383;-50
2022/11/12 05:24:58;;;;;;;16.70;8.27;;;5.40;29.60;;;;;;5073317;28;20404;-57
2022/11/12 05:27:24;;;;;;;17.00;7.25;;;5.70;34.90;;;;;;5073371;28;20379;-54
2022/11/12 05:29:49;;;;;;;17.40;7.23;;;5.40;14.40;;;;;;5073689;28;20460;-54
2022/11/12 05:32:15;;;;;;;15.23;6.70;;;5.40;4.90;;;;;;5072604;28;20391;-49
2022/11/12 05:34:41;;;;;;;16.10;7.43;;;5.60;1.00;;;;;;5073539;28;20376;-52
2022/11/12 05:37:08;;;;;;;15.25;7.70;;;5.40;3.30;;;;;;5072232;28;20514;-48
2022/11/12 05:39:33;;;;;;;15.35;7.25;;;6.80;13.20;;;;;;5073505;28;20459;-49
2022/11/12 05:41:59;;;;;;;14.88;6.93;;;5.40;7.30;;;;;;5072920;28;20454;-49
2022/11/12 05:44:25;;;;;;;13.70;6.47;;;7.40;33.50;;;;;;5073100;28;20403;-51
2022/11/12 05:46:50;;;;;;;12.80;6.32;;;5.50;33.60;;;;;;5073011;28;20936;-49
2022/11/12 05:49:16;;;;;;;14.37;7.17;;;5.50;1.00;;;;;;5072690;28;20462;-49
2022/11/12 05:51:42;;;;;;;13.60;6.63;;;5.50;1.00;;;;;;5073426;28;20882;-50
2022/11/12 05:54:08;;;;;;;15.18;7.10;;;5.40;1.00;;;;;;5054573;28;20384;-50
2022/11/12 05:56:35;;;;;;;13.15;6.13;;;5.40;1.00;;;;;;5055034;28;20376;-50
2022/11/12 05:59:03;;;;;;;15.48;6.72;;;5.30;1.00;;;;;;5072657;28;20396;-53
2022/11/12 06:01:29;;;;;;;12.80;6.30;;;6.00;1.00;;;;;;5072883;28;20441;-52
2022/11/12 06:03:55;;;;;;;12.50;6.40;;;5.20;1.00;;;;;;5073076;28;20388;-52
2022/11/12 06:06:21;;;;;;;12.77;6.03;;;5.20;1.00;;;;;;5072083;28;20411;-52
2022/11/12 06:08:46;;;;;;;15.15;6.32;;;5.70;1.00;;;;;;5072645;28;20483;-54
2022/11/12 06:11:12;;;;;;;14.57;7.10;;;5.30;1.00;;;;;;5071821;28;20800;-51
2022/11/12 06:13:37;;;;;;;13.65;6.88;;;6.20;1.00;;;;;;5071117;28;20462;-51
2022/11/12 06:16:03;;;;;;;13.88;5.80;;;5.10;1.00;;;;;;5070938;28;20412;-52
2022/11/12 06:18:29;;;;;;;12.93;6.60;;;5.10;1.00;;;;;;5072379;28;20418;-52
2022/11/12 06:21:20;;;;;;;13.65;6.05;;;5.00;1.00;;;;;;5072279;28;20387;-52
2022/11/12 06:23:48;;;;;;;12.85;5.70;;;5.80;1.00;;;;;;5072636;28;20380;-52
2022/11/12 06:26:13;;;;;;;13.17;6.03;;;6.50;1.00;;;;;;5071679;28;20430;-51
2022/11/12 06:28:39;;;;;;;12.20;5.80;;;5.10;1.00;;;;;;5072874;28;20841;-52
2022/11/12 06:31:05;;;;;;;14.45;6.15;;;5.10;1.00;;;;;;5053723;28;20391;-52
2022/11/12 06:33:30;;;;;;;15.43;6.77;;;5.10;1.00;;;;;;5071703;28;20400;-51
2022/11/12 06:36:01;;;;;;;13.68;6.75;;;5.10;1.00;;;;;;5072166;28;20391;-51
2022/11/12 06:38:31;;;;;;;12.98;6.60;;;5.20;1.00;;;;;;5072392;28;20395;-52
2022/11/12 06:40:57;;;;;;;13.97;7.03;;;5.10;1.00;;;;;;5072300;28;20367;-51
2022/11/12 06:43:23;;;;;;;13.23;5.10;;;5.10;1.00;;;;;;5071793;28;20380;-51
2022/11/12 06:45:48;;;;;;;12.25;5.88;;;5.00;1.00;;;;;;5072255;28;20399;-49
2022/11/12 06:48:14;;;;;;;12.82;5.90;;;5.00;1.00;;;;;;5071522;28;20917;-49
2022/11/12 06:50:40;;;;;;;15.40;6.80;;;5.00;1.00;;;;;;5072094;28;20498;-49
2022/11/12 06:53:05;;;;;;;12.50;6.43;;;6.20;1.00;;;;;;5071132;28;20376;-50
2022/11/12 06:55:32;;;;;;;13.87;7.10;;;5.10;1.00;;;;;;5071901;28;20402;-50
2022/11/12 06:57:57;;;;;;;14.45;6.10;;;5.10;1.00;;;;;;5071815;28;20753;-50
2022/11/12 07:00:23;;;;;;;13.73;6.30;;;5.10;1.00;;;;;;5070729;28;20459;-50
2022/11/12 07:02:49;;;;;;;17.05;6.13;;;6.00;1.00;;;;;;5071625;28;20399;-52
2022/11/12 07:05:14;;;;;;;20.60;5.70;;;5.10;1.00;;;;;;5062411;28;20412;-53
2022/11/12 07:07:40;;;;;;;19.30;6.50;;;5.30;1.00;;;;;;5067745;28;20380;-50
2022/11/12 07:10:06;;;;;;;18.20;7.80;;;5.30;1.00;;;;;;5071148;28;20455;-50
2022/11/12 07:12:32;;;;;;;15.97;7.67;;;5.40;14.00;;;;;;5071640;28;20825;-51
2022/11/12 07:14:57;;;;;;;24.20;6.70;;;5.50;44.10;;;;;;5070854;28;20512;-50
2022/11/12 07:17:23;;;;;;;18.23;6.67;;;5.70;72.80;;;;;;5070373;28;20392;-50
2022/11/12 07:19:48;;;;;;;21.30;7.20;;;7.60;26.20;;;;;;5071163;28;20372;-50
2022/11/12 07:22:14;;;;;;;16.70;7.10;;;7.30;37.60;;;;;;5070457;28;20768;-51
2022/11/12 07:24:39;;;;;;;13.80;6.65;;;7.10;72.70;;;;;;5070882;28;20403;-50
2022/11/12 07:27:05;;;;;;;16.87;7.23;;;6.50;21.80;;;;;;5070159;28;20792;-50
2022/11/12 07:29:31;;;;;;;13.43;6.40;;;6.60;1.00;;;;;;5071246;28;20388;-48
2022/11/12 07:31:56;;;;;;;15.60;7.60;;;6.50;1.00;;;;;;5070767;28;20449;-48
2022/11/12 07:34:22;;;;;;;15.15;7.30;;;6.70;1.00;;;;;;5070026;28;20483;-48
2022/11/12 07:36:50;;;;;;;15.53;7.43;;;7.40;1.00;;;;;;5070663;28;20391;-50
2022/11/12 07:39:16;;;;;;;16.45;7.53;;;8.30;5.40;;;;;;5070072;28;20526;-50
2022/11/12 07:41:42;;;;;;;14.70;7.70;;;10.00;99.90;;;;;;5071609;28;20430;-50
2022/11/12 07:44:08;;;;;;;14.73;7.45;;;9.30;99.90;;;;;;5070163;28;20819;-50
2022/11/12 07:46:33;;;;;;;16.40;7.80;;;9.60;99.90;;;;;;5070693;28;20376;-50
2022/11/12 07:48:59;;;;;;;13.90;7.20;;;10.50;99.90;;;;;;5071105;28;20375;-50
2022/11/12 07:51:27;;;;;;;18.10;7.30;;;9.20;10.30;;;;;;5069798;28;20844;-52
2022/11/12 07:53:55;;;;;;;13.38;6.97;;;9.30;99.90;;;;;;5070996;28;20378;-51
2022/11/12 07:56:23;;;;;;;13.50;6.53;;;9.10;1.00;;;;;;5069841;28;20395;-50
2022/11/12 07:58:49;;;;;;;12.77;6.50;;;9.30;97.90;;;;;;5070575;28;20375;-51
2022/11/12 08:01:38;;;;;;;10.93;5.38;;;9.70;98.80;;;;;;5069523;28;20459;-50
2022/11/12 08:04:06;;;;;;;12.65;5.78;;;10.20;99.90;;;;;;5069708;28;20507;-57
2022/11/12 08:06:33;;;;;;;13.97;5.40;;;10.20;1.00;;;;;;5070250;28;20403;-49
2022/11/12 08:09:01;;;;;;;12.82;6.20;;;9.90;1.00;;;;;;5070945;28;20380;-52
2022/11/12 08:11:27;;;;;;;12.20;5.90;;;9.70;1.00;;;;;;5070082;28;20380;-52
2022/11/12 08:13:52;;;;;;;12.30;6.07;;;9.40;1.00;;;;;;5070429;28;20406;-52
2022/11/12 08:16:18;;;;;;;10.93;6.07;;;9.20;99.90;;;;;;5069785;28;20407;-52
2022/11/12 08:18:44;;;;;;;11.35;6.13;;;9.20;99.90;;;;;;5070137;28;20411;-52
2022/11/12 08:21:12;;;;;;;11.60;6.70;;;9.30;99.90;;;;;;5069192;28;20388;-52
2022/11/12 08:23:38;;;;;;;14.93;7.70;;;9.40;99.90;;;;;;5070360;28;20372;-51
2022/11/12 08:26:07;;;;;;;14.07;6.88;;;9.40;99.90;;;;;;5069916;28;20878;-52
2022/11/12 08:28:34;;;;;;;13.20;6.70;;;9.20;99.90;;;;;;5070358;28;20861;-52
2022/11/12 08:31:20;;;;;;;12.77;6.30;;;9.10;99.90;;;;;;5070115;28;20387;-54
2022/11/12 08:33:45;;;;;;;13.10;7.00;;;10.20;99.90;;;;;;5069682;28;20422;-51
2022/11/12 08:36:13;;;;;;;14.43;7.60;;;9.30;99.90;;;;;;5069021;28;20857;-52
2022/11/12 08:38:40;;;;;;;13.95;7.57;;;9.30;99.90;;;;;;5070258;28;20388;-51
2022/11/12 08:41:08;;;;;;;15.15;8.00;;;9.10;99.90;;;;;;5068798;28;20792;-51
2022/11/12 08:43:34;;;;;;;15.52;8.45;;;9.00;99.90;;;;;;5070030;28;20376;-51
2022/11/12 08:46:01;;;;;;;14.68;7.35;;;9.20;99.90;;;;;;5069465;28;20439;-57
2022/11/12 08:48:28;;;;;;;15.43;7.65;;;9.30;99.90;;;;;;5069963;28;20417;-51
2022/11/12 08:50:54;;;;;;;13.93;7.53;;;9.40;99.90;;;;;;5070071;28;20424;-51
2022/11/12 08:53:22;;;;;;;12.35;6.63;;;9.90;1.00;;;;;;5068810;28;20927;-49
2022/11/12 08:55:51;;;;;;;13.40;6.60;;;11.40;1.00;;;;;;5069924;28;20383;-49
2022/11/12 08:58:17;;;;;;;11.35;6.25;;;12.70;1.00;;;;;;5069391;28;20548;-49
2022/11/12 09:00:43;;;;;;;10.80;6.10;;;13.30;1.00;;;;;;5069673;28;20471;-50
2022/11/12 09:03:16;;;;;;;10.13;5.50;;;13.80;1.00;;;;;;5068521;28;20396;-50
2022/11/12 09:05:42;;;;;;;10.85;6.00;;;14.30;1.00;;;;;;5070204;28;20438;-51
2022/11/12 09:08:14;;;;;;;10.32;5.28;;;15.10;1.00;;;;;;5068673;28;20473;-52
2022/11/12 09:10:40;;;;;;;12.27;6.45;;;15.90;1.00;;;;;;5069570;28;20376;-50
2022/11/12 09:13:06;;;;;;;11.73;5.50;;;16.70;1.00;;;;;;5068472;28;20380;-53
2022/11/12 09:15:32;;;;;;;13.27;6.37;;;17.60;99.90;;;;;;5069447;28;20387;-50
2022/11/12 09:18:01;;;;;;;11.25;6.10;;;17.80;99.90;;;;;;5069661;28;20833;-50
2022/11/12 09:20:28;;;;;;;14.43;6.00;;;17.30;99.90;;;;;;5070226;28;20755;-52
2022/11/12 09:23:01;;;;;;;9.97;5.13;;;16.70;99.90;;;;;;5069522;28;20857;-52
2022/11/12 09:25:27;;;;;;;12.65;5.97;;;15.90;99.90;;;;;;5069265;28;20412;-52
2022/11/12 09:27:53;;;;;;;11.60;6.20;;;15.70;99.90;;;;;;5069832;28;20429;-52
2022/11/12 09:30:19;;;;;;;13.18;6.15;;;15.60;99.90;;;;;;5069139;28;20419;-52
2022/11/12 09:32:44;;;;;;;13.10;6.70;;;15.80;99.90;;;;;;5069524;28;20849;-52
2022/11/12 09:35:10;;;;;;;13.97;6.40;;;15.90;99.90;;;;;;5068252;28;20401;-55
2022/11/12 09:37:37;;;;;;;12.57;6.38;;;15.60;99.90;;;;;;5069285;28;20857;-52
2022/11/12 09:40:03;;;;;;;11.70;6.20;;;16.20;99.90;;;;;;5069251;28;20380;-58
2022/11/12 09:42:29;;;;;;;12.70;6.05;;;16.00;99.90;;;;;;5062521;28;20477;-54
2022/11/12 09:45:09;;;;;;;11.15;5.90;;;15.80;99.90;;;;;;5049071;28;20417;-52
2022/11/12 09:47:40;;;;;;;11.18;5.82;;;15.80;99.90;;;;;;5064796;28;20449;-52
2022/11/12 09:50:28;;;;;;;10.95;5.80;;;16.10;99.90;;;;;;5049759;28;20412;-59
2022/11/12 09:53:17;;;;;;;13.95;5.80;;;16.80;99.90;;;;;;5072615;28;20411;-50
2022/11/12 09:55:47;;;;;;;9.60;5.05;;;17.30;99.90;;;;;;5072736;28;20452;-51
2022/11/12 09:58:14;;;;;;;10.40;5.40;;;17.20;99.90;;;;;;5068850;28;20377;-50
2022/11/12 10:00:51;;;;;;;10.73;5.20;;;16.80;99.90;;;;;;5066639;28;20391;-51
2022/11/12 10:03:28;;;;;;;11.10;5.22;;;16.30;99.90;;;;;;5069922;28;20387;-50
2022/11/12 10:06:06;;;;;;;11.73;5.30;;;16.50;99.90;;;;;;5071089;28;20412;-50
2022/11/12 10:08:51;;;;;;;10.13;5.50;;;16.90;99.90;;;;;;5054285;28;20482;-50
2022/11/12 10:11:25;;;;;;;10.57;5.38;;;17.00;99.90;;;;;;5061774;28;20393;-50
2022/11/12 10:14:02;;;;;;;9.60;4.72;;;16.90;99.90;;;;;;5059323;28;20384;-50
2022/11/12 10:16:43;;;;;;;9.38;4.60;;;16.80;99.90;;;;;;5072165;28;20415;-50
2022/11/12 10:19:33;;;;;;;9.75;5.13;;;16.10;99.90;;;;;;5067317;28;20424;-51
2022/11/12 10:22:01;;;;;;;10.30;4.80;;;16.70;99.90;;;;;;5069110;28;20410;-51
2022/11/12 10:24:34;;;;;;;9.50;4.68;;;15.60;99.90;;;;;;5068632;28;20691;-51
2022/11/12 10:27:01;;;;;;;9.57;5.15;;;16.40;99.90;;;;;;5071245;28;20376;-50
2022/11/12 10:29:37;;;;;;;10.37;4.33;;;15.90;99.90;;;;;;5071924;28;20899;-50
2022/11/12 10:32:03;;;;;;;9.18;4.63;;;15.80;99.90;;;;;;5072408;28;20431;-53
2022/11/12 10:34:30;;;;;;;11.20;4.50;;;16.20;99.90;;;;;;5072310;28;20447;-50
2022/11/12 10:37:13;;;;;;;9.13;4.90;;;16.70;99.90;;;;;;5072056;28;20388;-51
2022/11/12 10:39:46;;;;;;;11.13;5.40;;;17.20;99.90;;;;;;5068343;28;20397;-50
2022/11/12 10:42:20;;;;;;;10.73;4.72;;;17.00;99.90;;;;;;5051110;28;20385;-51
2022/11/12 10:44:46;;;;;;;9.20;4.40;;;17.60;99.90;;;;;;5051033;28;20492;-51
2022/11/12 10:47:20;;;;;;;9.40;4.53;;;18.10;99.90;;;;;;5051336;28;20479;-50
2022/11/12 10:50:07;;;;;;;10.50;5.40;;;18.70;99.90;;;;;;5051443;28;20402;-51
2022/11/12 10:52:34;;;;;;;9.38;5.00;;;18.40;99.90;;;;;;5051791;28;20386;-51
2022/11/12 10:55:17;;;;;;;9.45;4.68;;;18.80;99.90;;;;;;5051575;28;20434;-51
2022/11/12 10:57:42;;;;;;;10.93;5.10;;;18.90;99.90;;;;;;5051483;28;20388;-51
2022/11/12 11:00:09;;;;;;;8.98;4.53;;;18.60;99.90;;;;;;5050946;28;20369;-51
2022/11/12 11:02:34;;;;;;;9.77;4.80;;;18.30;99.90;;;;;;5050923;28;20843;-51
2022/11/12 11:05:27;;;;;;;8.57;4.50;;;18.00;99.90;;;;;;5051949;28;20425;-50
2022/11/12 11:07:53;;;;;;;8.57;4.47;;;17.70;99.90;;;;;;5051780;28;20421;-50
2022/11/12 11:10:30;;;;;;;8.43;4.47;;;17.80;99.90;;;;;;5051094;28;20424;-50
2022/11/12 11:13:18;;;;;;;9.27;4.60;;;17.70;99.90;;;;;;5051190;28;20411;-50
2022/11/12 11:16:04;;;;;;;8.90;4.20;;;17.50;99.90;;;;;;5051294;28;20412;-50
2022/11/12 11:18:33;;;;;;;9.25;4.22;;;17.30;99.90;;;;;;5050803;28;20930;-51
2022/11/12 11:21:07;;;;;;;8.68;3.92;;;17.20;99.90;;;;;;5051308;28;20385;-50
2022/11/12 11:23:51;;;;;;;9.63;4.28;;;16.70;99.90;;;;;;5051474;28;20390;-50
2022/11/12 11:26:56;;;;;;;10.52;4.18;;;16.40;99.90;;;;;;5050550;28;20405;-50
2022/11/12 11:30:02;;;;;;;9.52;4.20;;;16.50;99.90;;;;;;5050993;28;20378;-50
2022/11/12 11:32:47;;;;;;;10.10;4.50;;;16.40;99.90;;;;;;5001060;28;20894;-50
2022/11/12 11:35:55;;;;;;;10.32;4.70;;;16.40;99.90;;;;;;5050470;28;20865;-50
2022/11/12 11:38:31;;;;;;;8.95;4.10;;;16.10;99.90;;;;;;5048816;28;20404;-50
2022/11/12 11:41:34;;;;;;;8.60;4.00;;;16.20;99.90;;;;;;5051141;28;20421;-51
2022/11/12 11:44:00;;;;;;;8.80;4.17;;;16.10;99.90;;;;;;5050399;28;20396;-51
2022/11/12 11:46:28;;;;;;;9.23;4.10;;;16.00;99.90;;;;;;5049638;28;20597;-51
2022/11/12 11:49:03;;;;;;;8.02;3.80;;;16.00;99.90;;;;;;5050733;28;20491;-50
2022/11/12 11:52:06;;;;;;;9.95;4.95;;;15.90;99.90;;;;;;5050606;28;20862;-51
2022/11/12 11:54:49;;;;;;;9.52;4.32;;;15.90;99.90;;;;;;5049751;28;20416;-51
2022/11/12 11:57:21;;;;;;;9.77;4.60;;;15.90;99.90;;;;;;5050232;28;20430;-51
2022/11/12 12:00:08;;;;;;;9.13;4.65;;;15.90;99.90;;;;;;5051428;28;20381;-51
2022/11/12 12:03:03;;;;;;;9.32;4.25;;;16.00;99.90;;;;;;5050446;28;20740;-52
2022/11/12 12:06:17;;;;;;;10.40;4.40;;;16.10;99.90;;;;;;5049649;28;20417;-52
2022/11/12 12:09:08;;;;;;;9.43;4.50;;;15.70;99.90;;;;;;5028649;28;20389;-51
2022/11/12 12:11:39;;;;;;;8.90;4.17;;;15.60;99.90;;;;;;5050084;28;20369;-51
2022/11/12 12:14:28;;;;;;;11.03;5.30;;;15.60;99.90;;;;;;5058337;28;20395;-56
2022/11/12 12:17:09;;;;;;;9.02;4.40;;;15.50;99.90;;;;;;5070761;28;20430;-51
2022/11/12 12:20:01;;;;;;;10.23;5.13;;;15.70;99.90;;;;;;5070404;28;20705;-51
2022/11/12 12:22:35;;;;;;;10.80;5.50;;;15.80;99.90;;;;;;5070032;28;20387;-51
2022/11/12 12:25:12;;;;;;;9.75;5.07;;;15.70;99.90;;;;;;5070258;28;20411;-52
2022/11/12 12:27:49;;;;;;;9.68;4.50;;;15.80;99.90;;;;;;5069791;28;20387;-51
2022/11/12 12:30:20;;;;;;;9.80;4.60;;;15.70;99.90;;;;;;5069212;28;20376;-51
2022/11/12 12:32:54;;;;;;;9.50;4.30;;;15.80;99.90;;;;;;5069792;28;20403;-51
2022/11/12 12:35:28;;;;;;;10.33;4.53;;;15.60;99.90;;;;;;5069830;28;20391;-51
2022/11/12 12:38:12;;;;;;;8.10;4.17;;;15.60;99.90;;;;;;5070129;28;20387;-51
2022/11/12 12:41:00;;;;;;;11.75;5.13;;;15.70;99.90;;;;;;5069817;28;20416;-51
2022/11/12 12:44:04;;;;;;;10.63;4.65;;;15.60;99.90;;;;;;5069024;28;20384;-51
2022/11/12 12:46:35;;;;;;;11.85;5.70;;;15.60;99.90;;;;;;5051494;28;20498;-51
2022/11/12 12:49:03;;;;;;;13.07;5.30;;;15.70;99.90;;;;;;5052907;28;20397;-51
2022/11/12 12:51:30;;;;;;;9.27;5.00;;;15.30;99.90;;;;;;5069145;28;20372;-51
2022/11/12 12:53:56;;;;;;;10.45;5.32;;;15.20;99.90;;;;;;5051652;28;20877;-50
2022/11/12 12:56:22;;;;;;;9.57;4.78;;;15.10;99.90;;;;;;5068746;28;20383;-51
2022/11/12 12:58:49;;;;;;;12.20;5.47;;;15.00;99.90;;;;;;5070159;28;20383;-51
2022/11/12 13:01:23;;;;;;;11.55;5.72;;;15.10;99.90;;;;;;5069084;28;20379;-51
2022/11/12 13:04:10;;;;;;;11.50;5.65;;;15.10;99.90;;;;;;5069573;28;20868;-51
2022/11/12 13:06:54;;;;;;;12.87;5.60;;;14.90;99.90;;;;;;5069619;28;20412;-51
2022/11/12 13:09:24;;;;;;;9.82;5.57;;;14.90;99.90;;;;;;5068756;28;20391;-51
2022/11/12 13:14:37;;;;;;;11.88;5.97;;;15.00;99.90;;;;;;5069061;28;20808;-51
2022/11/12 13:17:11;;;;;;;11.80;5.95;;;14.90;99.90;;;;;;5069903;28;20388;-51
2022/11/12 13:19:51;;;;;;;12.38;6.05;;;14.90;99.90;;;;;;5069829;28;20392;-51
2022/11/12 13:22:17;;;;;;;11.38;6.20;;;14.80;99.90;;;;;;5068899;28;20419;-51
2022/11/12 13:25:07;;;;;;;11.52;5.78;;;14.70;99.90;;;;;;5069359;28;20813;-51